Main page
METAR-TAF:

METAR-TAF

Airports :

Mariehamn Airport

Mariehamn, Finland

latitude: 60-07N, longitude: 019-54E, elevation: 6 m

Current weather observation

The report was made 34 minutes ago, at 02:50 UTC
Calm wind
Temperature 11°C
Humidity 94%
Pressure 1008 hPa
Visibility 10 km or more
no clouds below 1500 m and no cumulonimbus

METAR: EFMA 200250Z AUTO 00000KT CAVOK 11/10 Q1008

Time: 06:24 (03:24 UTC)

Forecast

The report was made 55 minutes ago, at 02:29 UTC
Forecast valid from 20 at 03 UTC to 20 at 12 UTC
Wind 3 kt from the West/Southwest
Visibility 10 km or more
no clouds below 1500 m and no cumulonimbus
Becoming
from 20 at 10 UTC to 20 at 12 UTC
Wind 13 kt from the North/Northwest

TAF: EFMA 200229Z 2003/2012 24003KT CAVOK BECMG 2010/2012 34013KT

Weather observations and forecasts of more than 4000 airports (METAR and TAF reports).

The available stations are represented by yellow and red dots on the map.

Hover mouse over dot to see the name of the station.

Then click to see weather observations and forecasts.

To change the map : click on the green buttons with a black cross to zoom in, on the green button with a dash to zoom out, or on the green arrows for adjacent maps.


METAR-TAF: